KNMI Weerbulletins

Hier vind u de KMNI verwachtingen en de waarnemingen

Bron: KNMI website
Laatste update op 21-04-2019 om 13:15
ZCZC
FBNL50 EHDB 210812
WEERBULLETIN VOOR DE LUCHTVAART
.
GELDIG 210900/211500 UTC
.
SITUATIE: EEN HOGEDRUKGEBIED MET HET CENTRUM BOVEN DENEMARKEN
VERANDERT NAUWELIJKS VAN PLAATS EN HOUDT BOVEN ONZE OMGEVING EEN
OOSTELIJKE STROMING IN STAND MET AANVOER VAN DROGE, CONTINENTAAL
POLAIRE LUCHT. DE OPBOUW IS ONSTABIEL TOT CIRCA 1000 VT, IN DE LOOP
VAN DE PERIODE NEEMT DE ONSTABILITEITSDIEPTE TOE TOT CIRCA 6000 VT.
.
SIGNIFICANT WEER: GEEN.
.
WIND: NOORDOOST TOT OOST 5-10 KN. LANGS DE KUST EN OP HET IJSSELMEER
NOORDOOST 8-12 KN, IN DE EERSTE HELFT VAN DE PERIODE OP VEEL PLAATSEN
AAN DE KUST KRIMPEND NAAR NOORD EN DIEPER LANDINWAARTS RUIMEND NAAR
OOST.
.
BEWOLKING: GEEN.
.
ZICHT: MEER DAN 10 KM.
.
NULGRADEN NIVEAU: ROND FL100.
.
HOOGTEWINDEN EN TEMPERATUREN:
       09 UTC:       15 UTC:
0500VT 080/05-10 +15 100/05-10 +21
1500VT 090/10-15 +14 100/05-10 +17
3000VT 100/05-10 +12 110/05-10 +13
FL 050 VRB/05    +06 150/05-10 +07
FL 100 VRB/05    -00 150/05    +00
.
THERMIEK: ZWAK, VANAF 08 UTC MATIG. DROOG.
.
MAX. TEMPERATUUR: VAN 18 GRADEN CELSIUS OP DE WADDENEILANDEN TOT
LOKAAL 25 GRADEN IN HET ZUIDEN.
.
VOORUITZICHTEN VOOR DE PERIODE VAN 211500/212100: GEEN SIGNIFICANTE
VERANDERING.
.
DAGLICHTPERIODE: 04.16 TOT 19.02 UTC.=
NNNN
Bron: KNMI website
Laatste update op 21-04-2019 om 13:15
ZCZC
FT210500 EHAM     AMSTERDAM/SCHIPHOL   NLD   -3 m.
TAF EHAM 210459Z 2106/2212 06007KT CAVOK
    BECMG 2206/2209 10009KT
    BECMG 2209/2212 11012KT=
ZCZC
FT210500 EHBK     MAASTRICHT/MAASTRICHT-AACHEN   NLD   114 m.
TAF EHBK 210459Z 2106/2212 05007KT CAVOK
    BECMG 2208/2210 11013G23KT=
ZCZC
FT210500 EHGG     GRONINGEN/EELDE   NLD   5 m.
TAF EHGG 210459Z 2106/2212 05005KT CAVOK
    BECMG 2208/2210 11013G23KT=
ZCZC
FT210500 EHRD     ROTTERDAM/THE HAGUE AIRPORT   NLD   -5 m.
TAF EHRD 210458Z 2106/2212 07007KT CAVOK
    BECMG 2209/2212 11012KT=
ZCZC
FT210500 EHEH     EINDHOVEN/EINDHOVEN   NLD   22 m.
TAF EHEH 210512Z 2106/2212 06007KT CAVOK=
ZCZC
FC210900 EHGR     GILZE-RIJEN/GILZE-RIJEN   NLD   14 m.
TAF EHGR 210900Z NIL=
ZCZC
FC210900 EHKD     DE KOOY/DE KOOY   NLD   1 m.
TAF EHKD 210818Z 2109/2121 06008KT CAVOK=
ZCZC
FC210900 EHLW     LEEUWARDEN/LEEUWARDEN   NLD   1 m.
TAF EHLW 210817Z 2109/2121 06009KT CAVOK=
ZCZC
FC210900 EHVK     VOLKEL/VOLKEL   NLD   21 m.
TAF EHVK 210816Z 2109/2121 07006KT CAVOK=
ZCZC
FC210900 EHWO     WOENSDRECHT/WOENSDRECHT   NLD   19 m.
TAF EHWO 210900Z NIL=
Bron: KNMI website
Laatste update op 21-04-2019 om 13:15
ZCZC
SA211025 EHFS     VLISSINGEN AWS   NLD   8 m.
METAR EHFS 211025Z AUTO 07013KT 9999 NCD 19/04 Q1020 W///H///=
ZCZC
SA211055 EHKD     DE KOOY/DE KOOY   NLD   1 m.
METAR EHKD 211055Z AUTO 05008KT 9999 NCD 15/09 Q1022 BLU=
ZCZC
SA211055 EHFD     F3-FB-1   NLD   50 m.
METAR EHFD 211055Z AUTO 11006KT 9999 NSC 11/00 Q1023 W///H///=
ZCZC
SA211055 EHAM     AMSTERDAM/SCHIPHOL   NLD   -3 m.
METAR EHAM 211055Z 04009KT 010V090 CAVOK 19/04 Q1021 NOSIG=
ZCZC
SA211055 EHVL     VLIELAND   NLD   10 m.
METAR EHVL 211055Z AUTO 08011KT 9999 NCD 15/06 Q1022 BLU=
ZCZC
SA211055 EHJR     K13-A   NLD   37 m.
METAR EHJR 211055Z AUTO 10013KT //// // ///////// 10/06 Q1022 RE//
W10/H4=
ZCZC
SA211055 EHLW     LEEUWARDEN/LEEUWARDEN   NLD   1 m.
METAR EHLW 211055Z AUTO 07006KT 010V150 9999 NCD 18/03 Q1022 BLU=
ZCZC
SA211055 EHDL     ARNHEM/DEELEN   NLD   48 m.
METAR EHDL 211055Z AUTO 10008KT 020V190 9999 NCD 22/03 Q1021 BLU=
ZCZC
SA211055 EHGG     GRONINGEN/EELDE   NLD   5 m.
METAR EHGG 211055Z AUTO 06005KT 350V150 9999 NCD 19/03 Q1022 NOSIG=
ZCZC
SA211055 EHSC     LICHTEILAND GOEREE   NLD   22 m.
METAR EHSC 211055Z AUTO 05011KT 8000 ///////// 11/08 Q1021 W10/H3=
ZCZC
SA211055 EHSA     EURO PLATFORM   NLD   19 m.
METAR EHSA 211055Z AUTO 05013KT 8000 ///////// 12/07 Q1021 W08/H4=
ZCZC
SA211055 EHWO     WOENSDRECHT/WOENSDRECHT   NLD   19 m.
METAR EHWO 211055Z AUTO 09008KT 050V160 9999 NCD 21/05 Q1020 BLU=
ZCZC
SA211055 EHRD     ROTTERDAM/THE HAGUE AIRPORT   NLD   -5 m.
METAR EHRD 211055Z AUTO 06007KT 010V090 9999 NCD 20/06 Q1021 NOSIG=
ZCZC
SA211055 EHGR     GILZE-RIJEN/GILZE-RIJEN   NLD   14 m.
METAR EHGR 211055Z AUTO 06008KT 010V120 9999 NCD 22/06 Q1020 BLU=
ZCZC
SA211055 EHEH     EINDHOVEN/EINDHOVEN   NLD   22 m.
METAR EHEH 211055Z AUTO 09006KT 020V140 9999 NCD 23/03 Q1020
BLU 08007KT CAVOK=
ZCZC
SA211055 EHVK     VOLKEL/VOLKEL   NLD   21 m.
METAR EHVK 211055Z AUTO 07007KT 020V130 9999 NCD 22/05 Q1020 BLU=
ZCZC
SA211055 EHBK     MAASTRICHT/MAASTRICHT-AACHEN   NLD   114 m.
METAR EHBK 211055Z AUTO 09011KT 040V130 9999 NCD 23/04 Q1020 NOSIG=
ZCZC
SA211055 EHFZ     F16-A   NLD   43 m.
METAR EHFZ 211055Z AUTO 12009KT 9999 NCD 10/02 Q1023 W///H///=
ZCZC
SA211055 EHKV     K14-FA-1C   NLD   41 m.
METAR EHKV 211055Z AUTO 08013KT 9999 NSC 10/07 Q//// W///H///=
ZCZC
SA211055 EHMG     L9-FF-1   NLD   44 m.
METAR EHMG 211055Z AUTO 09014KT 9999 NCD 10/07 Q1023 W///H///=
ZCZC
SA211055 EHMA     AWG-1   NLD   40 m.
METAR EHMA 211055Z NIL=
ZCZC
SA211055 EHDV     D15-FA-1   NLD   42 m.
METAR EHDV 211055Z AUTO 13011KT 9999 NSC 11/03 Q1023 W///H///=
ZCZC
SA211055 EHAK     A12-CPP   NLD   48 m.
METAR EHAK 211055Z AUTO 11013KT 9999 NSC 11/02 Q1023 W///H///=
ZCZC
SA211055 EHQE     HOORN-A   NLD   50 m.
METAR EHQE 211055Z AUTO 03013KT 9999 NSC 10/08 Q1022 W///H///=
ZCZC
SA211055 EHJA     J6-A   NLD   45 m.
METAR EHJA 211055Z AUTO 11012KT 9999 ///////// 12/04 Q1023 W///H///=
ZCZC
SA211055 EHPG     P11-B   NLD   41 m.
METAR EHPG 211055Z AUTO 05013KT 9000 NSC 11/08 Q1021 W///H///=
ZCZC
SA211055 EHHW     BUITENGAATS/BG-OHVS2      42 m.
METAR EHHW 211055Z AUTO 08006KT 040V130 9999 NCD 09/06 Q1023
W///H///=